Time;durP1;ratioP1;P1;durP2;ratioP2;P2;SDS_P1;SDS_P2;PMS_P1;PMS_P2;Temp;Humidity;BMP_temperature;BMP_pressure;BME280_temperature;BME280_humidity;BME280_pressure;Samples;Min_cycle;Max_cycle;Signal;HPM_P1;HPM_P2
2024/02/15 00:01:46;;;;;;;;;;;;;;;3.10;100.00;97838.17;110351;1240;71312;-61
2024/02/15 00:04:14;;;;;;;;;;;;;;;3.11;100.00;97839.02;110314;1241;69178;-61
2024/02/15 00:06:44;;;;;;;;;;;;;;;3.11;100.00;97842.08;110302;1241;68824;-61
2024/02/15 00:09:12;;;;;;;;;;;;;;;3.15;100.00;97844.71;110303;1241;59660;-61
2024/02/15 00:11:41;;;;;;;;;;;;;;;3.15;100.00;97845.25;110350;1241;59653;-61
2024/02/15 00:14:10;;;;;;;;;;;;;;;3.16;100.00;97849.36;110353;1240;72093;-61
2024/02/15 00:16:38;;;;;;;;;;;;;;;3.16;100.00;97852.80;110271;1240;69303;-61
2024/02/15 00:19:07;;;;;;;;;;;;;;;3.15;100.00;97852.83;110365;1241;69730;-61
2024/02/15 00:21:36;;;;;;;;;;;;;;;3.12;100.00;97856.01;110366;1241;59739;-61
2024/02/15 00:24:05;;;;;;;;;;;;;;;3.06;100.00;97858.11;110368;1242;59720;-62
2024/02/15 00:26:34;;;;;;;;;;;;;;;3.09;100.00;97857.67;110315;1241;71170;-61
2024/02/15 00:29:03;;;;;;;;;;;;;;;3.06;100.00;97859.48;110373;1241;69761;-61
2024/02/15 00:31:32;;;;;;;;;;;;;;;3.04;100.00;97860.58;110306;1241;68145;-61
2024/02/15 00:34:02;;;;;;;;;;;;;;;3.03;100.00;97861.48;110374;1242;59739;-61
2024/02/15 00:36:33;;;;;;;;;;;;;;;3.01;100.00;97864.14;110202;1242;59673;-59
2024/02/15 00:39:03;;;;;;;;;;;;;;;3.00;100.00;97861.77;110309;1241;72082;-61
2024/02/15 00:41:33;;;;;;;;;;;;;;;2.98;100.00;97860.15;110290;1242;69694;-59
2024/02/15 00:44:03;;;;;;;;;;;;;;;2.98;100.00;97865.46;110053;1244;69117;-60
2024/02/15 00:46:32;;;;;;;;;;;;;;;2.93;100.00;97863.76;110234;1241;59712;-60
2024/02/15 00:49:01;;;;;;;;;;;;;;;2.91;100.00;97861.41;110212;1242;59656;-60
2024/02/15 00:51:30;;;;;;;;;;;;;;;2.88;100.00;97861.53;110302;1240;71432;-60
2024/02/15 00:54:00;;;;;;;;;;;;;;;2.85;100.00;97861.10;110360;1241;69824;-60
2024/02/15 00:56:30;;;;;;;;;;;;;;;2.79;100.00;97857.14;110344;1241;68268;-61
2024/02/15 00:59:03;;;;;;;;;;;;;;;2.81;100.00;97857.26;110462;1241;59738;-61
2024/02/15 01:01:32;;;;;;;;;;;;;;;2.82;100.00;97856.91;110502;1241;59638;-61
2024/02/15 01:04:01;;;;;;;;;;;;;;;2.82;100.00;97856.04;110352;1242;71931;-61
2024/02/15 01:06:29;;;;;;;;;;;;;;;2.83;100.00;97853.43;110443;1241;69130;-60
2024/02/15 01:09:01;;;;;;;;;;;;;;;2.84;100.00;97857.00;110625;1241;69163;-60
2024/02/15 01:11:32;;;;;;;;;;;;;;;2.83;100.00;97851.89;110446;1238;59725;-60
2024/02/15 01:14:00;;;;;;;;;;;;;;;2.83;100.00;97847.55;110446;1245;59725;-60
2024/02/15 01:16:29;;;;;;;;;;;;;;;2.84;100.00;97852.02;110397;1241;70910;-60
2024/02/15 01:18:58;;;;;;;;;;;;;;;2.83;100.00;97851.01;110400;1241;68132;-62
2024/02/15 01:21:27;;;;;;;;;;;;;;;2.82;100.00;97849.50;110379;1241;69694;-61
2024/02/15 01:23:56;;;;;;;;;;;;;;;2.78;100.00;97848.44;110495;1242;59854;-60
2024/02/15 01:26:25;;;;;;;;;;;;;;;2.76;100.00;97848.49;110437;1238;59675;-61
2024/02/15 01:28:54;;;;;;;;;;;;;;;2.74;100.00;97850.98;110667;1241;70680;-62
2024/02/15 01:31:23;;;;;;;;;;;;;;;2.70;100.00;97852.65;110551;1241;69987;-61
2024/02/15 01:33:51;;;;;;;;;;;;;;;2.67;100.00;97852.42;110570;1238;70241;-59
2024/02/15 01:36:20;;;;;;;;;;;;;;;2.63;100.00;97850.16;110611;1238;59748;-60
2024/02/15 01:38:49;;;;;;;;;;;;;;;2.56;100.00;97850.04;110510;1241;59667;-59
2024/02/15 01:41:18;;;;;;;;;;;;;;;2.50;100.00;97847.65;110352;1238;71150;-62
2024/02/15 01:43:47;;;;;;;;;;;;;;;2.44;100.00;97852.00;110381;1240;69220;-60
2024/02/15 01:46:16;;;;;;;;;;;;;;;2.37;100.00;97851.88;110407;1240;69932;-60
2024/02/15 01:48:45;;;;;;;;;;;;;;;2.29;100.00;97847.16;110515;1238;59714;-59
2024/02/15 01:51:16;;;;;;;;;;;;;;;2.20;100.00;97849.67;110427;1241;59676;-59
2024/02/15 01:53:44;;;;;;;;;;;;;;;2.11;100.00;97847.56;110449;1241;72084;-60
2024/02/15 01:56:14;;;;;;;;;;;;;;;2.03;100.00;97850.75;110380;1241;69805;-59
2024/02/15 01:58:45;;;;;;;;;;;;;;;1.93;100.00;97854.66;110316;1240;69172;-60
2024/02/15 02:01:14;;;;;;;;;;;;;;;1.83;100.00;97851.55;110295;1240;59738;-59
2024/02/15 02:03:44;;;;;;;;;;;;;;;1.72;100.00;97857.02;110441;1239;59651;-59
2024/02/15 02:06:13;;;;;;;;;;;;;;;1.60;100.00;97854.98;110385;1238;71357;-59
2024/02/15 02:08:42;;;;;;;;;;;;;;;1.49;100.00;97857.36;110464;1240;69429;-59
2024/02/15 02:11:12;;;;;;;;;;;;;;;1.38;100.00;97860.44;110427;1242;69236;-60
2024/02/15 02:13:41;;;;;;;;;;;;;;;1.26;100.00;97861.80;110367;1242;59785;-59
2024/02/15 02:16:26;;;;;;;;;;;;;;;1.15;100.00;97863.50;110410;1240;59734;-60
2024/02/15 02:18:58;;;;;;;;;;;;;;;1.02;100.00;97864.02;110435;1241;71284;-60
2024/02/15 02:21:28;;;;;;;;;;;;;;;0.92;100.00;97866.35;110394;1241;69983;-60
2024/02/15 02:23:57;;;;;;;;;;;;;;;0.84;100.00;97871.73;110436;1241;68720;-60
2024/02/15 02:26:27;;;;;;;;;;;;;;;0.75;100.00;97875.72;110374;1241;59681;-60
2024/02/15 02:28:55;;;;;;;;;;;;;;;0.69;100.00;97875.05;110575;1242;59670;-60
2024/02/15 02:31:24;;;;;;;;;;;;;;;0.62;100.00;97875.39;110383;1241;71949;-60
2024/02/15 02:33:53;;;;;;;;;;;;;;;0.54;100.00;97880.05;110349;1242;69350;-60
2024/02/15 02:36:26;;;;;;;;;;;;;;;0.46;100.00;97880.60;110353;1240;69149;-60
2024/02/15 02:38:55;;;;;;;;;;;;;;;0.39;100.00;97886.76;110342;1242;59743;-60
2024/02/15 02:41:24;;;;;;;;;;;;;;;0.32;100.00;97885.74;110198;1240;59724;-60
2024/02/15 02:43:52;;;;;;;;;;;;;;;0.25;100.00;97886.75;110461;1241;71822;-60
2024/02/15 02:46:21;;;;;;;;;;;;;;;0.19;100.00;97891.36;110437;1241;69229;-60
2024/02/15 02:48:50;;;;;;;;;;;;;;;0.12;100.00;97891.34;110482;1241;68391;-60
2024/02/15 02:51:19;;;;;;;;;;;;;;;0.06;100.00;97892.86;110389;1242;59743;-60
2024/02/15 02:53:48;;;;;;;;;;;;;;;0.01;100.00;97893.69;110444;1241;59591;-59
2024/02/15 02:56:18;;;;;;;;;;;;;;;-0.05;100.00;97895.52;110510;1241;71963;-60
2024/02/15 02:58:47;;;;;;;;;;;;;;;-0.12;100.00;97896.01;110435;1241;69732;-59
2024/02/15 03:01:17;;;;;;;;;;;;;;;-0.18;100.00;97898.55;110378;1241;69538;-60
2024/02/15 03:03:47;;;;;;;;;;;;;;;-0.27;100.00;97900.29;110335;1241;59678;-60
2024/02/15 03:06:16;;;;;;;;;;;;;;;-0.35;100.00;97898.23;110379;1238;59705;-60
2024/02/15 03:08:45;;;;;;;;;;;;;;;-0.41;100.00;97898.02;110376;1242;71174;-59
2024/02/15 03:11:14;;;;;;;;;;;;;;;-0.45;100.00;97898.64;110492;1241;69155;-60
2024/02/15 03:13:44;;;;;;;;;;;;;;;-0.48;100.00;97904.00;110424;1240;69762;-60
2024/02/15 03:16:12;;;;;;;;;;;;;;;-0.52;100.00;97902.86;110344;1240;59697;-59
2024/02/15 03:18:41;;;;;;;;;;;;;;;-0.55;100.00;97903.27;110337;1241;59653;-60
2024/02/15 03:21:10;;;;;;;;;;;;;;;-0.55;100.00;97909.09;110320;1243;71437;-60
2024/02/15 03:23:40;;;;;;;;;;;;;;;-0.54;100.00;97911.99;110381;1241;68422;-59
2024/02/15 03:26:09;;;;;;;;;;;;;;;-0.56;100.00;97911.85;110338;1241;69166;-59
2024/02/15 03:28:37;;;;;;;;;;;;;;;-0.59;100.00;97913.46;110328;1241;60121;-60
2024/02/15 03:31:07;;;;;;;;;;;;;;;-0.61;100.00;97913.48;110169;1241;59679;-59
2024/02/15 03:33:36;;;;;;;;;;;;;;;-0.63;100.00;97910.48;110619;1238;71453;-60
2024/02/15 03:36:05;;;;;;;;;;;;;;;-0.69;100.00;97909.39;110408;1241;67438;-60
2024/02/15 03:38:35;;;;;;;;;;;;;;;-0.75;100.00;97911.56;110510;1238;69933;-60
2024/02/15 03:41:05;;;;;;;;;;;;;;;-0.82;100.00;97913.59;110499;1242;60188;-59
2024/02/15 03:43:34;;;;;;;;;;;;;;;-0.90;100.00;97914.41;110474;1244;59666;-59
2024/02/15 03:46:02;;;;;;;;;;;;;;;-0.98;100.00;97912.17;110467;1239;71326;-59
2024/02/15 03:48:32;;;;;;;;;;;;;;;-1.03;100.00;97913.63;110371;1241;68765;-59
2024/02/15 03:51:01;;;;;;;;;;;;;;;-1.09;100.00;97916.31;110397;1238;69995;-59
2024/02/15 03:53:31;;;;;;;;;;;;;;;-1.15;100.00;97916.75;110455;1239;59657;-60
2024/02/15 03:56:00;;;;;;;;;;;;;;;-1.20;100.00;97917.36;110418;1238;59635;-59
2024/02/15 03:58:32;;;;;;;;;;;;;;;-1.26;100.00;97917.46;110265;1242;71169;-58
2024/02/15 04:01:04;;;;;;;;;;;;;;;-1.31;100.00;97920.11;110618;1242;69699;-59
2024/02/15 04:03:34;;;;;;;;;;;;;;;-1.37;100.00;97918.69;110601;1238;70212;-59
2024/02/15 04:06:04;;;;;;;;;;;;;;;-1.41;100.00;97918.23;110517;1240;59678;-59
2024/02/15 04:08:33;;;;;;;;;;;;;;;-1.43;100.00;97922.20;110428;1238;59655;-58
2024/02/15 04:11:02;;;;;;;;;;;;;;;-1.44;100.00;97924.27;110454;1241;71378;-60
2024/02/15 04:13:31;;;;;;;;;;;;;;;-1.46;100.00;97926.20;110456;1242;70178;-59
2024/02/15 04:15:59;;;;;;;;;;;;;;;-1.48;100.00;97930.50;110455;1242;69849;-59
2024/02/15 04:18:31;;;;;;;;;;;;;;;-1.51;100.00;97931.41;110529;1238;59757;-59
2024/02/15 04:21:02;;;;;;;;;;;;;;;-1.56;100.00;97930.80;110596;1242;59645;-60
2024/02/15 04:23:30;;;;;;;;;;;;;;;-1.60;100.00;97933.09;110564;1240;72100;-61
2024/02/15 04:25:59;;;;;;;;;;;;;;;-1.63;100.00;97934.33;110428;1242;69033;-61
2024/02/15 04:28:28;;;;;;;;;;;;;;;-1.66;100.00;97935.58;110420;1238;69883;-60
2024/02/15 04:30:56;;;;;;;;;;;;;;;-1.69;100.00;97935.11;110502;1237;60030;-60
2024/02/15 04:33:25;;;;;;;;;;;;;;;-1.72;100.00;97936.84;110640;1239;59681;-60
2024/02/15 04:35:54;;;;;;;;;;;;;;;-1.74;100.00;97941.00;110517;1237;71355;-61
2024/02/15 04:38:25;;;;;;;;;;;;;;;-1.77;100.00;97938.15;110499;1239;68996;-60
2024/02/15 04:40:54;;;;;;;;;;;;;;;-1.82;100.00;97938.20;110450;1240;69326;-60
2024/02/15 04:43:23;;;;;;;;;;;;;;;-1.86;100.00;97942.53;110417;1240;59734;-59
2024/02/15 04:45:54;;;;;;;;;;;;;;;-1.88;100.00;97948.39;110448;1242;59650;-60
2024/02/15 04:48:24;;;;;;;;;;;;;;;-1.91;100.00;97946.70;110375;1241;70454;-61
2024/02/15 04:50:54;;;;;;;;;;;;;;;-1.90;100.00;97950.11;110385;1242;69823;-60
2024/02/15 04:53:23;;;;;;;;;;;;;;;-1.90;100.00;97956.27;110413;1242;69818;-60
2024/02/15 04:55:52;;;;;;;;;;;;;;;-1.92;100.00;97960.05;110307;1241;59677;-60
2024/02/15 04:58:20;;;;;;;;;;;;;;;-1.94;100.00;97962.48;110351;1241;59672;-59
2024/02/15 05:00:53;;;;;;;;;;;;;;;-1.98;100.00;97962.36;110442;1242;70383;-60
2024/02/15 05:03:22;;;;;;;;;;;;;;;-2.01;100.00;97965.65;110429;1241;69778;-61
2024/02/15 05:05:51;;;;;;;;;;;;;;;-2.05;100.00;97970.48;110425;1241;69208;-60
2024/02/15 05:08:20;;;;;;;;;;;;;;;-2.11;100.00;97970.05;110533;1241;59760;-58
2024/02/15 05:10:49;;;;;;;;;;;;;;;-2.17;100.00;97970.81;110392;1242;59692;-60
2024/02/15 05:13:18;;;;;;;;;;;;;;;-2.21;100.00;97973.60;110437;1241;71889;-60
2024/02/15 05:15:47;;;;;;;;;;;;;;;-2.26;100.00;97975.20;110459;1240;69265;-59
2024/02/15 05:18:16;;;;;;;;;;;;;;;-2.30;100.00;97977.14;110455;1241;69701;-60
2024/02/15 05:20:45;;;;;;;;;;;;;;;-2.34;100.00;97976.65;110482;1242;60126;-60
2024/02/15 05:23:16;;;;;;;;;;;;;;;-2.36;100.00;97977.36;110485;1241;60071;-60
2024/02/15 05:25:45;;;;;;;;;;;;;;;-2.39;100.00;97982.20;110467;1241;71926;-60
2024/02/15 05:28:13;;;;;;;;;;;;;;;-2.41;100.00;97987.86;110349;1242;70188;-60
2024/02/15 05:30:42;;;;;;;;;;;;;;;-2.42;100.00;97989.73;110393;1241;69894;-60
2024/02/15 05:33:11;;;;;;;;;;;;;;;-2.41;100.00;97987.00;110480;1242;59748;-60
2024/02/15 05:35:41;;;;;;;;;;;;;;;-2.44;100.00;97986.20;110443;1242;59676;-60
2024/02/15 05:38:11;;;;;;;;;;;;;;;-2.46;100.00;97993.37;110334;1241;72056;-60
2024/02/15 05:40:40;;;;;;;;;;;;;;;-2.48;100.00;97994.08;110485;1241;69849;-60
2024/02/15 05:43:08;;;;;;;;;;;;;;;-2.48;100.00;98001.25;110413;1243;69522;-60
2024/02/15 05:45:39;;;;;;;;;;;;;;;-2.45;100.00;98003.27;110445;1239;59744;-60
2024/02/15 05:48:12;;;;;;;;;;;;;;;-2.41;100.00;98006.46;110435;1241;59662;-60
2024/02/15 05:50:41;;;;;;;;;;;;;;;-2.38;100.00;98008.14;110441;1239;70456;-60
2024/02/15 05:53:10;;;;;;;;;;;;;;;-2.36;100.00;98009.65;110407;1238;69188;-60
2024/02/15 05:55:44;;;;;;;;;;;;;;;-2.34;100.00;98009.29;110393;1241;69684;-60
2024/02/15 05:58:13;;;;;;;;;;;;;;;-2.33;100.00;98015.24;110347;1240;59753;-59
2024/02/15 06:00:44;;;;;;;;;;;;;;;-2.29;100.00;98017.06;110414;1241;59747;-60
2024/02/15 06:03:13;;;;;;;;;;;;;;;-2.25;100.00;98016.17;110458;1243;71202;-61
2024/02/15 06:05:43;;;;;;;;;;;;;;;-2.21;100.00;98015.95;110438;1240;69310;-59
2024/02/15 06:08:12;;;;;;;;;;;;;;;-2.18;100.00;98015.06;110358;1242;68949;-60
2024/02/15 06:10:41;;;;;;;;;;;;;;;-2.14;100.00;98010.57;110490;1244;59740;-58
2024/02/15 06:13:11;;;;;;;;;;;;;;;-2.10;100.00;98006.26;110443;1242;59692;-60
2024/02/15 06:15:40;;;;;;;;;;;;;;;-2.02;100.00;98011.09;110387;1242;70608;-60
2024/02/15 06:18:14;;;;;;;;;;;;;;;-1.92;100.00;98014.21;110101;1241;68826;-59
2024/02/15 06:20:46;;;;;;;;;;;;;;;-1.84;100.00;98013.93;110356;1242;69967;-60
2024/02/15 06:23:15;;;;;;;;;;;;;;;-1.74;100.00;98014.48;110331;1240;59741;-60
2024/02/15 06:25:44;;;;;;;;;;;;;;;-1.65;100.00;98017.09;110334;1242;59737;-60
2024/02/15 06:28:19;;;;;;;;;;;;;;;-1.56;100.00;98018.14;110353;1241;72134;-60
2024/02/15 06:41:58;;;;;;;;;;;;;;;-1.06;100.00;98026.95;110372;1242;71342;-59
2024/02/15 06:44:27;;;;;;;;;;;;;;;-0.89;100.00;98023.56;110188;1243;70240;-60
2024/02/15 06:46:56;;;;;;;;;;;;;;;-0.56;100.00;98026.23;110379;1241;69682;-61
2024/02/15 06:49:25;;;;;;;;;;;;;;;-0.05;100.00;98022.66;110312;1242;59814;-61
2024/02/15 06:51:54;;;;;;;;;;;;;;;0.55;100.00;98024.77;110382;1239;59734;-61
2024/02/15 06:54:23;;;;;;;;;;;;;;;1.17;100.00;98021.39;110365;1242;71880;-61
2024/02/15 06:56:54;;;;;;;;;;;;;;;1.80;100.00;98020.05;110397;1239;69272;-61
2024/02/15 06:59:23;;;;;;;;;;;;;;;2.41;100.00;98016.70;110346;1241;69113;-61
2024/02/15 07:01:53;;;;;;;;;;;;;;;2.95;100.00;98017.08;110195;1240;59729;-61
2024/02/15 07:04:21;;;;;;;;;;;;;;;3.41;100.00;98017.42;110336;1241;59669;-61
2024/02/15 07:06:51;;;;;;;;;;;;;;;3.88;100.00;98013.36;110257;1241;71446;-61
2024/02/15 07:09:24;;;;;;;;;;;;;;;4.26;100.00;98010.05;110225;1242;69128;-61
2024/02/15 07:11:53;;;;;;;;;;;;;;;4.61;99.60;98014.73;110234;1242;69197;-61
2024/02/15 07:14:21;;;;;;;;;;;;;;;5.06;99.44;98019.34;110221;1241;59824;-61
2024/02/15 07:16:52;;;;;;;;;;;;;;;5.38;97.44;98018.89;110248;1242;59683;-61
2024/02/15 07:19:20;;;;;;;;;;;;;;;5.86;100.00;98019.20;110222;1240;72125;-61
2024/02/15 07:21:50;;;;;;;;;;;;;;;6.24;99.90;98012.19;110091;1240;69205;-61
2024/02/15 07:24:19;;;;;;;;;;;;;;;6.72;100.00;98010.79;110245;1241;69868;-61
2024/02/15 07:26:48;;;;;;;;;;;;;;;6.70;86.53;98006.90;110236;1241;59738;-61
2024/02/15 07:29:17;;;;;;;;;;;;;;;6.54;81.62;97999.86;110214;1242;59672;-61
2024/02/15 07:31:45;;;;;;;;;;;;;;;6.71;79.75;98001.99;110105;1239;71161;-62
2024/02/15 07:34:14;;;;;;;;;;;;;;;6.80;78.33;97998.82;110236;1242;69232;-61
2024/02/15 07:36:43;;;;;;;;;;;;;;;7.14;79.01;98003.20;110290;1242;68177;-63
2024/02/15 07:39:19;;;;;;;;;;;;;;;7.42;74.94;98005.09;110259;1241;59734;-62
2024/02/15 07:41:47;;;;;;;;;;;;;;;7.57;71.90;98003.47;110399;1241;59737;-62
2024/02/15 07:44:17;;;;;;;;;;;;;;;8.26;70.48;98003.12;110354;1242;71303;-62
2024/02/15 07:46:47;;;;;;;;;;;;;;;9.11;82.19;98003.83;110366;1242;69204;-61
2024/02/15 07:49:17;;;;;;;;;;;;;;;9.33;64.52;98004.79;110405;1242;70049;-61
2024/02/15 07:51:52;;;;;;;;;;;;;;;9.45;64.29;98003.73;110326;1239;59744;-60
2024/02/15 07:54:22;;;;;;;;;;;;;;;9.83;64.82;98004.09;110485;1242;59670;-60
2024/02/15 07:56:51;;;;;;;;;;;;;;;10.00;67.98;98003.73;110476;1238;71856;-60
2024/02/15 07:59:20;;;;;;;;;;;;;;;10.45;68.27;98003.09;110468;1242;69191;-60
2024/02/15 08:01:50;;;;;;;;;;;;;;;10.70;61.15;98003.80;110450;1241;69233;-62
2024/02/15 08:04:20;;;;;;;;;;;;;;;10.30;57.05;98007.33;110191;1240;59752;-62
2024/02/15 08:06:48;;;;;;;;;;;;;;;10.40;57.17;98003.77;110421;1243;59734;-60
2024/02/15 08:09:20;;;;;;;;;;;;;;;9.94;54.84;98006.20;110418;1242;70845;-60
2024/02/15 08:11:49;;;;;;;;;;;;;;;10.55;53.72;98003.34;110465;1240;69657;-60
2024/02/15 08:14:20;;;;;;;;;;;;;;;10.88;55.67;97999.51;110457;1240;69906;-60
2024/02/15 08:16:49;;;;;;;;;;;;;;;11.43;53.75;98002.33;110522;1240;59669;-60
2024/02/15 08:19:18;;;;;;;;;;;;;;;11.41;51.42;97994.73;110288;1248;59731;-60
2024/02/15 08:21:50;;;;;;;;;;;;;;;11.75;50.54;97995.63;110455;1242;71827;-61
2024/02/15 08:24:19;;;;;;;;;;;;;;;12.27;51.65;97994.47;110453;1241;69258;-61
2024/02/15 08:26:48;;;;;;;;;;;;;;;12.59;49.72;97997.60;110424;1240;69725;-61
2024/02/15 08:29:17;;;;;;;;;;;;;;;12.55;47.85;97994.76;110468;1242;59737;-61
2024/02/15 08:31:46;;;;;;;;;;;;;;;12.55;47.53;97993.54;110476;1242;59679;-61
2024/02/15 08:34:18;;;;;;;;;;;;;;;13.23;48.77;98000.16;110526;1241;70504;-61
2024/02/15 08:36:48;;;;;;;;;;;;;;;13.34;46.23;97996.40;110439;1242;69678;-61
2024/02/15 08:39:17;;;;;;;;;;;;;;;13.19;46.97;97995.19;110216;1242;69222;-61
2024/02/15 08:41:46;;;;;;;;;;;;;;;13.19;48.24;97993.10;110390;1241;59742;-61
2024/02/15 08:44:15;;;;;;;;;;;;;;;13.63;48.06;97995.02;110459;1242;59643;-60
2024/02/15 08:46:45;;;;;;;;;;;;;;;13.69;45.89;97993.23;110431;1241;71968;-61
2024/02/15 08:49:17;;;;;;;;;;;;;;;14.01;45.24;97987.80;110358;1238;69693;-61
2024/02/15 08:51:46;;;;;;;;;;;;;;;13.84;46.15;97984.35;110354;1242;69143;-61
2024/02/15 08:54:14;;;;;;;;;;;;;;;13.88;44.80;97985.05;110369;1242;59744;-61
2024/02/15 08:56:43;;;;;;;;;;;;;;;14.25;45.91;97980.77;110394;1242;60086;-62
2024/02/15 08:59:15;;;;;;;;;;;;;;;14.36;45.64;97983.07;110408;1242;71828;-62
2024/02/15 09:01:46;;;;;;;;;;;;;;;14.43;42.64;97986.17;110381;1240;69894;-60
2024/02/15 09:04:14;;;;;;;;;;;;;;;14.53;43.89;97988.80;110390;1238;70185;-60
2024/02/15 09:06:43;;;;;;;;;;;;;;;14.68;42.28;97991.62;110382;1241;59750;-61
2024/02/15 09:09:12;;;;;;;;;;;;;;;14.45;44.17;97988.71;110417;1241;59942;-61
2024/02/15 09:11:41;;;;;;;;;;;;;;;14.76;43.34;97990.45;110396;1238;71944;-61
2024/02/15 09:14:10;;;;;;;;;;;;;;;15.39;43.66;97992.15;110376;1239;69737;-61
2024/02/15 09:16:39;;;;;;;;;;;;;;;15.78;41.83;97989.93;110470;1241;69268;-62
2024/02/15 09:19:08;;;;;;;;;;;;;;;15.50;42.17;97989.31;110489;1242;59670;-61
2024/02/15 09:21:36;;;;;;;;;;;;;;;15.24;40.87;97993.05;110436;1242;59678;-62
2024/02/15 09:24:06;;;;;;;;;;;;;;;15.46;41.08;97993.11;110517;1241;70760;-62
2024/02/15 09:26:36;;;;;;;;;;;;;;;15.03;41.51;97992.77;110455;1240;67775;-62
2024/02/15 09:29:04;;;;;;;;;;;;;;;15.08;40.02;97998.05;110636;1241;69292;-62
2024/02/15 09:31:36;;;;;;;;;;;;;;;15.37;39.80;97995.44;110474;1241;59737;-62
2024/02/15 09:34:06;;;;;;;;;;;;;;;15.84;39.75;98000.18;110482;1241;59627;-62
2024/02/15 09:36:38;;;;;;;;;;;;;;;15.85;39.56;97997.33;110410;1238;72031;-62
2024/02/15 09:39:07;;;;;;;;;;;;;;;14.85;38.81;97998.14;110416;1242;69205;-62
2024/02/15 09:41:36;;;;;;;;;;;;;;;15.50;39.54;97997.17;110376;1240;68839;-62
2024/02/15 09:44:06;;;;;;;;;;;;;;;15.99;39.12;97994.08;110386;1238;59693;-61
2024/02/15 09:46:36;;;;;;;;;;;;;;;16.59;39.29;97990.88;110418;1242;59736;-60
2024/02/15 09:49:07;;;;;;;;;;;;;;;16.88;37.26;97990.95;110445;1242;72010;-61
2024/02/15 09:51:37;;;;;;;;;;;;;;;16.15;36.26;97989.88;110406;1241;69225;-61
2024/02/15 09:54:09;;;;;;;;;;;;;;;16.46;38.94;97987.59;110452;1242;69102;-61
2024/02/15 09:56:38;;;;;;;;;;;;;;;16.32;38.42;97988.23;110427;1242;59709;-61
2024/02/15 09:59:07;;;;;;;;;;;;;;;16.58;38.37;97987.94;110391;1241;59605;-60
2024/02/15 10:01:37;;;;;;;;;;;;;;;16.79;37.88;97989.02;110412;1241;71354;-61
2024/02/15 10:04:07;;;;;;;;;;;;;;;16.71;37.98;97986.98;110414;1241;69765;-61
2024/02/15 10:06:35;;;;;;;;;;;;;;;16.20;38.44;97982.84;110441;1242;68185;-61
2024/02/15 10:09:24;;;;;;;;;;;;;;;17.11;38.26;97985.64;110414;1242;59719;-61
2024/02/15 10:11:56;;;;;;;;;;;;;;;17.53;36.39;97985.36;110418;1241;59628;-61
2024/02/15 10:14:26;;;;;;;;;;;;;;;18.32;35.48;97982.41;110469;1241;71947;-61
2024/02/15 10:16:55;;;;;;;;;;;;;;;17.56;34.14;97981.34;110460;1238;69753;-61
2024/02/15 10:19:27;;;;;;;;;;;;;;;17.14;35.53;97980.27;110412;1241;70025;-61
2024/02/15 10:22:06;;;;;;;;;;;;;;;17.42;36.86;97977.34;110426;1242;59710;-61
2024/02/15 10:24:35;;;;;;;;;;;;;;;18.10;34.81;97971.73;110373;1241;59741;-61
2024/02/15 10:27:06;;;;;;;;;;;;;;;18.14;34.60;97973.92;110487;1242;71188;-61
2024/02/15 10:29:35;;;;;;;;;;;;;;;18.79;34.09;97972.39;110410;1238;69339;-61
2024/02/15 10:32:10;;;;;;;;;;;;;;;18.57;33.43;97970.08;110362;1242;69698;-61
2024/02/15 10:34:48;;;;;;;;;;;;;;;18.57;34.13;97971.35;110388;1242;59689;-61
2024/02/15 10:37:17;;;;;;;;;;;;;;;17.26;33.53;97972.79;110389;1242;59675;-60
2024/02/15 10:39:46;;;;;;;;;;;;;;;16.18;34.75;97969.66;110408;1241;71324;-60
2024/02/15 10:42:17;;;;;;;;;;;;;;;16.36;34.64;97970.15;110423;1242;69149;-61
2024/02/15 10:44:47;;;;;;;;;;;;;;;17.26;33.18;97970.10;110359;1242;69102;-61
2024/02/15 10:47:19;;;;;;;;;;;;;;;16.95;33.68;97963.81;110390;1248;59698;-61
2024/02/15 10:49:49;;;;;;;;;;;;;;;17.37;33.07;97962.83;110399;1241;59692;-61
2024/02/15 10:52:20;;;;;;;;;;;;;;;15.76;34.76;97960.92;110383;1245;71990;-61
2024/02/15 10:54:57;;;;;;;;;;;;;;;16.19;35.07;97957.73;110442;1242;69987;-60
2024/02/15 10:57:29;;;;;;;;;;;;;;;16.50;35.56;97960.09;110405;1241;69063;-61
2024/02/15 10:59:58;;;;;;;;;;;;;;;17.31;35.37;97958.48;110395;1238;59725;-60
2024/02/15 11:02:31;;;;;;;;;;;;;;;17.60;33.61;97958.77;110419;1241;59682;-61
2024/02/15 11:05:10;;;;;;;;;;;;;;;18.21;34.07;97950.66;110386;1241;72267;-62
2024/02/15 11:07:39;;;;;;;;;;;;;;;18.15;33.12;97943.77;110488;1238;69945;-61
2024/02/15 11:10:10;;;;;;;;;;;;;;;18.69;31.88;97937.04;110338;1242;69758;-61
2024/02/15 11:12:42;;;;;;;;;;;;;;;17.61;33.45;97930.31;110414;1239;59686;-61
2024/02/15 11:15:35;;;;;;;;;;;;;;;18.34;33.83;97927.12;110447;1242;59698;-61
2024/02/15 11:18:05;;;;;;;;;;;;;;;19.33;32.64;97926.41;110469;1241;72003;-61
2024/02/15 11:20:34;;;;;;;;;;;;;;;19.29;30.93;97927.33;110463;1241;70321;-60
2024/02/15 11:23:06;;;;;;;;;;;;;;;19.15;30.84;97922.88;110477;1242;69358;-61
2024/02/15 11:25:37;;;;;;;;;;;;;;;19.26;31.29;97923.78;110410;1242;59699;-61
2024/02/15 11:28:21;;;;;;;;;;;;;;;19.72;30.47;97925.09;110550;1242;59679;-61
2024/02/15 11:30:50;;;;;;;;;;;;;;;19.22;30.68;97925.05;110572;1242;71299;-62
2024/02/15 11:33:29;;;;;;;;;;;;;;;19.72;31.28;97920.02;110221;1238;69540;-60
2024/02/15 11:36:05;;;;;;;;;;;;;;;19.04;31.29;97917.26;110351;1242;69846;-60
2024/02/15 11:38:35;;;;;;;;;;;;;;;19.87;31.34;97909.68;110380;1240;59657;-61
2024/02/15 11:41:05;;;;;;;;;;;;;;;19.83;31.22;97908.42;110446;1242;59633;-61
2024/02/15 11:43:45;;;;;;;;;;;;;;;20.16;30.24;97910.70;110553;1238;71755;-60
2024/02/15 11:46:14;;;;;;;;;;;;;;;20.57;30.76;97912.77;110529;1248;69305;-63
2024/02/15 11:48:43;;;;;;;;;;;;;;;20.47;31.05;97905.72;110456;1240;69812;-62
2024/02/15 11:51:29;;;;;;;;;;;;;;;20.13;30.69;97906.79;110416;1242;59744;-61
2024/02/15 11:54:05;;;;;;;;;;;;;;;19.10;31.14;97904.34;110465;1242;59734;-62
2024/02/15 11:56:43;;;;;;;;;;;;;;;19.67;32.09;97900.67;110380;1242;71225;-62
2024/02/15 11:59:31;;;;;;;;;;;;;;;20.01;30.39;97897.41;110377;1242;69279;-62
2024/02/15 12:18:54;;;;;;;;;;;;;;;20.97;30.09;97887.45;110417;1240;59743;-61
2024/02/15 12:21:26;;;;;;;;;;;;;;;20.75;29.76;97884.80;110383;1241;59628;-62
2024/02/15 12:23:55;;;;;;;;;;;;;;;21.20;29.86;97883.31;110381;1240;71212;-62
2024/02/15 12:26:25;;;;;;;;;;;;;;;21.78;29.47;97878.05;110397;1242;70138;-61
2024/02/15 12:28:57;;;;;;;;;;;;;;;21.84;29.25;97875.94;110430;1242;69272;-63
2024/02/15 12:31:28;;;;;;;;;;;;;;;22.51;29.30;97873.73;110410;1242;59757;-61
2024/02/15 12:34:00;;;;;;;;;;;;;;;21.74;27.93;97875.02;110491;1242;59731;-61
2024/02/15 12:36:32;;;;;;;;;;;;;;;20.86;29.10;97871.09;110558;1242;70862;-62
2024/02/15 12:39:02;;;;;;;;;;;;;;;21.30;28.96;97873.19;110495;1241;69831;-61
2024/02/15 12:41:31;;;;;;;;;;;;;;;21.89;29.10;97865.30;110487;1239;69354;-63
2024/02/15 12:44:01;;;;;;;;;;;;;;;21.34;28.50;97870.61;110518;1243;59725;-62
2024/02/15 12:46:29;;;;;;;;;;;;;;;21.44;29.15;97867.63;110524;1241;59666;-61
2024/02/15 12:49:17;;;;;;;;;;;;;;;22.12;28.78;97866.45;110504;1242;70257;-61
2024/02/15 12:51:52;;;;;;;;;;;;;;;22.15;28.35;97867.70;110514;1241;69674;-61
2024/02/15 12:54:23;;;;;;;;;;;;;;;22.15;27.48;97866.09;110542;1243;68790;-62
2024/02/15 12:57:07;;;;;;;;;;;;;;;22.14;28.17;97865.69;110567;1241;59705;-61
2024/02/15 12:59:37;;;;;;;;;;;;;;;22.34;28.11;97864.38;110590;1242;59651;-61
2024/02/15 13:02:05;;;;;;;;;;;;;;;20.41;28.02;97870.56;110588;1242;71819;-61
2024/02/15 13:04:34;;;;;;;;;;;;;;;21.23;28.63;97872.95;110616;1243;69226;-62
2024/02/15 13:07:07;;;;;;;;;;;;;;;20.98;27.87;97874.04;110466;1238;69071;-60
2024/02/15 13:09:36;;;;;;;;;;;;;;;21.06;28.55;97871.03;110539;1240;59669;-63
2024/02/15 13:12:05;;;;;;;;;;;;;;;20.89;28.90;97870.91;110519;1241;59671;-63
2024/02/15 13:14:35;;;;;;;;;;;;;;;21.03;28.73;97871.05;110371;1243;70720;-62
2024/02/15 13:17:04;;;;;;;;;;;;;;;21.27;28.85;97868.81;110502;1240;69867;-61
2024/02/15 13:19:35;;;;;;;;;;;;;;;21.04;28.50;97867.14;110491;1238;69269;-62